Crouch, Idaho
Current Conditions -  °F | °C
As of 2:53 PM on Friday 28 Nov 2014 (Local Time) from KBOI Reporting Station
Clear Clear  
Wind Chill: 63°   Ceiling: Unl
Heat Index: 63°   Visibility: 10mi
Dew Point: 28°   Wind: 6mph
Humidity: 27%   Direction: 120°ESE
Pressure: 29.7"   Gusts: NA
Location:  44.07°N, 115.488°W
Report Text: KBOI 282153Z 12005KT 10SM CLR 17/M02 A2970 RMK AO2 SLP047 T01721022
Loading
Personal Weather Stations






























Interactive Weather Map New forecast layout! Learn more

10-Day Weather Forecast

Advertisements
Track Severe Weather on mobile